createdAt,value
2018-03-27T12:21:49.138Z,34048
2018-03-27T12:22:57.915Z,39136
2018-03-27T12:24:06.328Z,36064
2018-03-27T12:25:14.318Z,32000
2018-03-27T12:26:23.502Z,32928
2018-03-27T12:27:32.793Z,33472
2018-03-27T12:28:40.841Z,40224
2018-03-27T12:29:46.786Z,51552
2018-03-27T12:30:48.193Z,62784
2018-03-27T12:31:56.868Z,62176
2018-03-27T12:33:04.810Z,60736
2018-03-27T12:34:14.032Z,66304
2018-03-27T12:35:23.524Z,73600
2018-03-27T12:36:30.082Z,70464
2018-03-27T12:37:37.261Z,69216
2018-03-27T12:38:44.665Z,66784
2018-03-27T12:39:52.192Z,61952
2018-03-27T12:40:59.325Z,59232
2018-03-27T12:42:05.133Z,58336
2018-03-27T12:43:13.401Z,57312
2018-03-27T12:44:22.197Z,55744
2018-03-27T12:45:30.979Z,54016
2018-03-27T12:46:41.033Z,52896
2018-03-27T12:47:53.447Z,43552
2018-03-27T12:49:01.811Z,34976
2018-03-27T12:50:08.651Z,33152
2018-03-27T12:51:10.054Z,33376
2018-03-27T12:52:19.488Z,32928
2018-03-27T12:53:27.692Z,32160
2018-03-27T12:54:39.508Z,32288
2018-03-27T12:55:48.561Z,32736
2018-03-27T12:56:56.002Z,33024
2018-03-27T12:58:07.928Z,33152
2018-03-27T12:59:14.823Z,33472
2018-03-27T13:00:22.905Z,33536
2018-03-27T13:01:32.956Z,33760
2018-03-27T13:02:41.379Z,33888
2018-03-27T13:03:47.990Z,34080
2018-03-27T13:04:52.126Z,34336
2018-03-27T13:06:00.937Z,34432
2018-03-27T13:07:10.323Z,34688
2018-03-27T13:08:17.899Z,34848
2018-03-27T13:09:26.363Z,34592
2018-03-27T13:10:33.623Z,34464
2018-03-27T13:11:40.522Z,34048
2018-03-27T13:12:47.589Z,34144
2018-03-27T13:13:56.041Z,34784
2018-03-27T13:15:03.810Z,35552
2018-03-27T13:16:05.205Z,36640
2018-03-27T13:17:13.499Z,37056
2018-03-27T13:18:20.862Z,37504
2018-03-27T13:19:29.148Z,38688
2018-03-27T13:20:35.888Z,40160
2018-03-27T13:21:43.001Z,41536
2018-03-27T13:22:50.988Z,43584
2018-03-27T13:23:52.386Z,45504
2018-03-27T13:24:54.111Z,47264
2018-03-27T13:26:01.910Z,50912
2018-03-27T13:27:12.500Z,55936
2018-03-27T13:28:19.717Z,63776
2018-03-27T13:29:26.381Z,71392
2018-03-27T13:30:33.940Z,80768
2018-03-27T13:31:41.719Z,93792
2018-03-27T13:32:49.577Z,99328
